createdAt,value
2023-05-19T00:00:05.208Z,64.72
2023-05-19T00:02:35.429Z,64.63
2023-05-19T00:05:02.652Z,65.08
2023-05-19T00:07:33.130Z,65.29
2023-05-19T00:10:00.636Z,65.73
2023-05-19T00:12:28.032Z,65.83
2023-05-19T00:14:55.174Z,65.86
2023-05-19T00:17:24.973Z,66.22
2023-05-19T00:19:53.005Z,65.81
2023-05-19T00:22:20.186Z,66.05
2023-05-19T00:24:47.019Z,66.24
2023-05-19T00:27:14.000Z,66.85
2023-05-19T00:29:43.511Z,66.73
2023-05-19T00:32:10.526Z,67.00
2023-05-19T00:34:40.027Z,67.17
2023-05-19T00:37:07.222Z,67.19
2023-05-19T00:39:34.386Z,67.90
2023-05-19T00:42:01.425Z,67.93
2023-05-19T00:44:28.768Z,68.58
2023-05-19T00:46:58.068Z,68.74
2023-05-19T00:49:25.097Z,69.72
2023-05-19T00:51:52.319Z,69.11
2023-05-19T00:54:20.933Z,69.44
2023-05-19T00:56:50.004Z,69.61
2023-05-19T00:59:17.651Z,69.15
2023-05-19T01:01:46.149Z,69.04
2023-05-19T01:04:17.322Z,69.24
2023-05-19T01:06:44.363Z,69.50
2023-05-19T01:09:12.283Z,69.36
2023-05-19T01:11:39.392Z,69.51
2023-05-19T01:14:06.388Z,69.22
2023-05-19T01:16:33.280Z,69.42
2023-05-19T01:19:14.697Z,69.47
2023-05-19T01:21:53.895Z,69.66
2023-05-19T01:24:24.288Z,69.61
2023-05-19T01:27:17.971Z,69.43
2023-05-19T01:30:12.975Z,69.14
2023-05-19T01:32:42.378Z,69.74
2023-05-19T01:35:12.802Z,70.02
2023-05-19T01:37:41.438Z,70.55
2023-05-19T01:40:12.018Z,71.02
2023-05-19T01:42:42.562Z,71.38
2023-05-19T01:45:12.469Z,71.32
2023-05-19T01:47:42.933Z,71.17
2023-05-19T01:50:11.267Z,70.98
2023-05-19T01:52:40.601Z,71.28
2023-05-19T01:55:10.728Z,71.12
2023-05-19T01:57:56.628Z,71.25
2023-05-19T02:00:37.659Z,71.30
2023-05-19T02:03:07.532Z,71.25
2023-05-19T02:05:59.625Z,71.58
2023-05-19T02:08:58.989Z,71.29
2023-05-19T02:11:42.165Z,71.46
2023-05-19T02:14:17.152Z,71.78
2023-05-19T02:16:49.110Z,71.84
2023-05-19T02:19:28.128Z,71.95
2023-05-19T02:21:55.424Z,72.15
2023-05-19T02:24:23.147Z,72.18
2023-05-19T02:26:53.299Z,72.52
2023-05-19T02:29:22.920Z,72.33
2023-05-19T02:31:50.008Z,72.39
2023-05-19T02:34:16.849Z,72.33
2023-05-19T02:36:44.398Z,72.41
2023-05-19T02:39:12.370Z,72.66
2023-05-19T02:41:39.331Z,72.65
2023-05-19T02:44:06.877Z,72.55
2023-05-19T02:46:34.406Z,72.04
2023-05-19T02:49:01.382Z,72.74
2023-05-19T02:51:28.510Z,72.61
2023-05-19T02:54:00.910Z,72.76
2023-05-19T02:56:28.407Z,73.05
2023-05-19T02:58:55.493Z,72.94
2023-05-19T03:01:23.301Z,73.20
2023-05-19T03:03:50.489Z,73.28
2023-05-19T03:06:18.255Z,73.12
2023-05-19T03:08:51.634Z,73.31
2023-05-19T03:11:21.376Z,73.50
2023-05-19T03:13:48.226Z,73.57
2023-05-19T03:16:15.615Z,73.63
2023-05-19T03:18:43.486Z,73.73
2023-05-19T03:21:15.648Z,74.18
2023-05-19T03:23:42.582Z,74.43
2023-05-19T03:26:09.396Z,74.38
2023-05-19T03:28:36.316Z,74.60
2023-05-19T03:31:03.726Z,74.77
2023-05-19T03:33:30.736Z,75.20
2023-05-19T03:35:57.698Z,75.45
2023-05-19T03:38:26.773Z,75.52
2023-05-19T03:40:54.067Z,75.62
2023-05-19T03:43:21.289Z,75.96
2023-05-19T03:45:50.611Z,76.01
2023-05-19T03:48:23.104Z,76.21
2023-05-19T03:50:50.423Z,76.06
2023-05-19T03:53:23.733Z,76.49
2023-05-19T03:55:51.015Z,76.12
2023-05-19T03:58:17.970Z,76.77
2023-05-19T04:00:44.872Z,77.17
2023-05-19T04:03:11.827Z,76.98
2023-05-19T04:05:41.356Z,76.79
2023-05-19T04:08:11.232Z,76.86
2023-05-19T04:10:38.355Z,76.57
2023-05-19T04:13:07.751Z,77.02
2023-05-19T04:15:34.626Z,77.20
2023-05-19T04:18:01.873Z,77.14
2023-05-19T04:20:29.215Z,77.25
2023-05-19T04:22:56.149Z,77.32
2023-05-19T04:25:25.367Z,77.54
2023-05-19T04:27:58.005Z,77.13
2023-05-19T04:30:28.971Z,77.29
2023-05-19T04:32:58.451Z,77.29
2023-05-19T04:35:25.427Z,77.49
2023-05-19T04:37:54.625Z,78.05
2023-05-19T04:40:23.836Z,78.29
2023-05-19T04:42:54.177Z,78.27
2023-05-19T04:45:23.674Z,77.72
2023-05-19T04:47:53.831Z,77.45
2023-05-19T04:50:26.683Z,77.17
2023-05-19T04:52:59.103Z,76.17
2023-05-19T04:55:28.454Z,72.38
2023-05-19T04:57:57.666Z,68.20
2023-05-19T05:00:25.496Z,67.19
2023-05-19T05:02:58.097Z,65.59
2023-05-19T05:05:25.209Z,63.01
2023-05-19T05:07:54.376Z,60.97
2023-05-19T05:10:21.832Z,59.72
2023-05-19T05:12:54.078Z,58.12
2023-05-19T05:15:28.316Z,56.95
2023-05-19T05:17:56.213Z,56.25
2023-05-19T05:20:23.451Z,54.89
2023-05-19T05:22:52.936Z,54.51
2023-05-19T05:25:20.932Z,53.95
2023-05-19T05:27:52.828Z,52.05
2023-05-19T05:30:19.790Z,51.96
2023-05-19T05:32:46.808Z,51.05
2023-05-19T05:35:13.875Z,49.54
2023-05-19T05:37:43.317Z,49.16
2023-05-19T05:40:13.931Z,48.86
2023-05-19T05:42:42.948Z,47.86
2023-05-19T05:45:12.465Z,47.05
2023-05-19T05:47:41.495Z,48.82
2023-05-19T05:50:10.324Z,49.18
2023-05-19T05:52:38.199Z,48.41
2023-05-19T05:55:06.162Z,47.17
2023-05-19T05:57:35.504Z,45.36
2023-05-19T06:00:20.305Z,44.38
2023-05-19T06:02:51.462Z,43.45
2023-05-19T06:05:18.460Z,42.78
2023-05-19T06:07:45.319Z,43.38
2023-05-19T06:10:15.374Z,43.93
2023-05-19T06:12:43.430Z,44.38
2023-05-19T06:15:10.612Z,44.44
2023-05-19T06:17:38.118Z,43.86
2023-05-19T06:20:11.599Z,42.32
2023-05-19T06:22:41.091Z,39.20
2023-05-19T06:25:26.255Z,39.30
2023-05-19T06:27:54.118Z,38.74
2023-05-19T06:30:23.992Z,38.92
2023-05-19T06:32:51.014Z,37.19
2023-05-19T06:35:18.244Z,35.92
2023-05-19T06:37:48.986Z,36.38
2023-05-19T06:40:20.815Z,35.44
2023-05-19T06:42:47.984Z,35.68
2023-05-19T06:45:15.018Z,35.38
2023-05-19T06:47:42.770Z,36.60
2023-05-19T06:50:10.627Z,35.22
2023-05-19T06:52:38.304Z,34.97
2023-05-19T06:55:05.759Z,35.47
2023-05-19T06:57:36.164Z,36.29
2023-05-19T07:00:04.213Z,35.59
2023-05-19T07:02:33.128Z,34.99
2023-05-19T07:04:59.774Z,34.33
2023-05-19T07:07:26.952Z,34.19
2023-05-19T07:09:53.556Z,33.50
2023-05-19T07:12:20.192Z,32.25
2023-05-19T07:14:46.901Z,32.39
2023-05-19T07:17:13.545Z,32.78
2023-05-19T07:19:42.382Z,33.24
2023-05-19T07:22:09.027Z,32.89
2023-05-19T07:24:35.833Z,32.56
2023-05-19T07:27:04.730Z,32.81
2023-05-19T07:29:31.444Z,33.13
2023-05-19T07:31:58.358Z,32.02
2023-05-19T07:34:25.627Z,32.05
2023-05-19T07:36:54.892Z,31.96
2023-05-19T07:39:25.278Z,31.44
2023-05-19T07:41:55.713Z,30.91
2023-05-19T07:44:22.424Z,30.71
2023-05-19T07:46:51.216Z,29.79
2023-05-19T07:49:19.974Z,29.41
2023-05-19T07:51:48.816Z,30.25
2023-05-19T07:54:15.686Z,30.48
2023-05-19T07:56:42.361Z,29.88
2023-05-19T07:59:11.453Z,30.09
2023-05-19T08:01:38.388Z,30.57
2023-05-19T08:04:05.627Z,30.05
2023-05-19T08:06:32.435Z,30.61
2023-05-19T08:09:01.894Z,30.53
2023-05-19T08:11:29.298Z,31.11
2023-05-19T08:13:55.995Z,30.87
2023-05-19T08:16:22.877Z,31.44
2023-05-19T08:18:52.024Z,30.87
2023-05-19T08:21:18.735Z,31.22
2023-05-19T08:23:45.625Z,31.80
2023-05-19T08:26:12.614Z,32.13
2023-05-19T08:28:41.545Z,32.71
2023-05-19T08:31:08.377Z,33.80
2023-05-19T08:33:34.980Z,32.57
2023-05-19T08:36:01.736Z,33.65
2023-05-19T08:38:28.596Z,34.89
2023-05-19T08:40:55.391Z,35.24
2023-05-19T08:43:22.232Z,35.34
2023-05-19T08:45:48.975Z,35.98
2023-05-19T08:48:19.730Z,36.08
2023-05-19T08:51:00.206Z,37.07
2023-05-19T08:53:36.867Z,37.51
2023-05-19T08:56:15.094Z,37.59
2023-05-19T08:58:44.317Z,37.71
2023-05-19T09:01:19.897Z,37.42
2023-05-19T09:03:49.985Z,38.17
2023-05-19T09:06:17.203Z,37.99
2023-05-19T09:08:45.049Z,37.98
2023-05-19T09:11:12.553Z,38.92
2023-05-19T09:13:39.316Z,38.74
2023-05-19T09:16:08.823Z,38.97
2023-05-19T09:18:39.793Z,38.81
2023-05-19T09:21:07.562Z,38.59
2023-05-19T09:23:34.980Z,39.30
2023-05-19T09:26:04.935Z,38.87
2023-05-19T09:28:35.681Z,38.89
2023-05-19T09:31:03.661Z,38.01
2023-05-19T09:33:32.938Z,37.31
2023-05-19T09:36:03.966Z,37.39
2023-05-19T09:38:30.661Z,36.06
2023-05-19T09:40:59.061Z,35.16
2023-05-19T09:43:30.057Z,35.63
2023-05-19T09:46:08.183Z,35.30
2023-05-19T09:48:36.652Z,35.29
2023-05-19T09:51:08.162Z,36.12
2023-05-19T09:53:35.175Z,36.75
2023-05-19T09:56:03.509Z,36.40
2023-05-19T09:58:35.470Z,35.72
2023-05-19T10:01:05.701Z,36.46
2023-05-19T10:03:33.831Z,36.48
2023-05-19T10:06:01.730Z,36.33
2023-05-19T10:08:32.024Z,36.66
2023-05-19T10:10:59.546Z,37.00
2023-05-19T10:13:27.478Z,36.45
2023-05-19T10:15:58.595Z,36.54
2023-05-19T10:18:27.144Z,36.93
2023-05-19T10:20:54.829Z,37.21
2023-05-19T10:23:22.702Z,36.92
2023-05-19T10:25:52.732Z,37.65
2023-05-19T10:28:25.583Z,37.82
2023-05-19T10:30:58.071Z,38.51
2023-05-19T10:34:05.915Z,37.05
2023-05-19T10:36:46.422Z,36.08
2023-05-19T10:39:31.457Z,36.49
2023-05-19T10:42:27.130Z,36.23
2023-05-19T10:45:05.577Z,36.02
2023-05-19T10:47:33.692Z,35.60
2023-05-19T10:50:06.710Z,36.00
2023-05-19T10:52:37.415Z,35.84
2023-05-19T10:55:05.019Z,35.46
2023-05-19T10:57:34.753Z,34.79
2023-05-19T11:00:25.712Z,35.94
2023-05-19T11:02:56.377Z,35.94
2023-05-19T11:05:29.509Z,36.35
2023-05-19T11:08:02.568Z,35.87
2023-05-19T11:10:29.371Z,36.60
2023-05-19T11:12:58.298Z,36.08
2023-05-19T11:15:28.366Z,36.39
2023-05-19T11:17:55.334Z,36.48
2023-05-19T11:20:24.245Z,35.99
2023-05-19T11:23:10.677Z,36.48
2023-05-19T11:25:48.845Z,36.93
2023-05-19T11:28:25.861Z,36.52
2023-05-19T11:30:57.876Z,36.84
2023-05-19T11:33:27.498Z,36.68
2023-05-19T11:36:03.098Z,36.37
2023-05-19T11:38:32.694Z,36.36
2023-05-19T11:41:03.712Z,36.95
2023-05-19T11:43:30.560Z,35.94
2023-05-19T11:45:57.374Z,35.77
2023-05-19T11:48:26.371Z,36.41
2023-05-19T11:50:53.532Z,36.81
2023-05-19T11:53:22.522Z,35.76
2023-05-19T11:55:52.022Z,36.14
2023-05-19T11:58:26.863Z,35.37
2023-05-19T12:00:54.213Z,35.28
2023-05-19T12:03:28.807Z,35.24
2023-05-19T12:05:56.198Z,35.24
2023-05-19T12:08:22.999Z,34.99
2023-05-19T12:10:51.037Z,36.40
2023-05-19T12:13:17.873Z,35.55
2023-05-19T12:15:44.681Z,36.05
2023-05-19T12:18:11.430Z,35.76
2023-05-19T12:20:38.283Z,36.56
2023-05-19T12:23:06.104Z,35.89
2023-05-19T12:25:33.184Z,36.08
2023-05-19T12:28:04.655Z,35.00
2023-05-19T12:30:33.223Z,35.04
2023-05-19T12:33:04.510Z,34.97
2023-05-19T12:35:36.275Z,35.78
2023-05-19T12:38:09.709Z,35.30
2023-05-19T12:40:37.742Z,35.70
2023-05-19T12:43:05.792Z,35.96
2023-05-19T12:45:37.077Z,35.18
2023-05-19T12:48:06.652Z,35.11
2023-05-19T12:50:34.510Z,35.49
2023-05-19T12:53:01.698Z,35.30
2023-05-19T12:55:30.761Z,35.51
2023-05-19T12:57:58.306Z,35.47
2023-05-19T13:00:32.808Z,35.53
2023-05-19T13:03:07.803Z,36.08
2023-05-19T13:05:37.916Z,35.62
2023-05-19T13:08:09.990Z,36.11
2023-05-19T13:10:40.715Z,35.49
2023-05-19T13:13:08.468Z,35.89
2023-05-19T13:15:38.925Z,36.08
2023-05-19T13:18:12.201Z,35.57
2023-05-19T13:20:40.720Z,35.33
2023-05-19T13:23:07.852Z,35.53
2023-05-19T13:25:34.956Z,35.76
2023-05-19T13:28:05.176Z,35.68
2023-05-19T13:30:33.730Z,36.15
2023-05-19T13:33:03.862Z,35.85
2023-05-19T13:35:36.813Z,35.39
2023-05-19T13:38:10.441Z,35.49
2023-05-19T13:40:39.881Z,35.65
2023-05-19T13:43:07.839Z,35.95
2023-05-19T13:45:39.348Z,34.97
2023-05-19T13:48:07.471Z,34.86
2023-05-19T13:50:34.415Z,34.92
2023-05-19T13:53:01.083Z,35.49
2023-05-19T13:55:27.779Z,35.82
2023-05-19T13:57:54.465Z,35.30
2023-05-19T14:00:21.536Z,35.18
2023-05-19T14:02:48.316Z,34.55
2023-05-19T14:05:14.942Z,34.66
2023-05-19T14:07:42.543Z,34.59
2023-05-19T14:10:12.190Z,34.61
2023-05-19T14:12:55.117Z,34.39
2023-05-19T14:15:26.640Z,34.52
2023-05-19T14:17:53.700Z,34.16
2023-05-19T14:20:20.448Z,34.20
2023-05-19T14:22:49.416Z,33.97
2023-05-19T14:25:16.154Z,33.84
2023-05-19T14:27:42.913Z,34.27
2023-05-19T14:30:10.313Z,34.30
2023-05-19T14:32:36.993Z,34.25
2023-05-19T14:35:04.010Z,33.93
2023-05-19T14:37:32.191Z,34.20
2023-05-19T14:39:59.980Z,33.80
2023-05-19T14:42:26.709Z,34.23
2023-05-19T14:44:56.013Z,33.87
2023-05-19T14:47:22.853Z,33.73
2023-05-19T14:49:49.818Z,34.26
2023-05-19T14:52:18.753Z,34.39
2023-05-19T14:54:45.448Z,33.84
2023-05-19T14:57:12.072Z,33.84
2023-05-19T14:59:39.344Z,33.83
2023-05-19T15:02:06.192Z,33.75
2023-05-19T15:04:33.027Z,33.88
2023-05-19T15:07:09.671Z,33.86
2023-05-19T15:09:37.218Z,33.94
2023-05-19T15:12:04.031Z,33.88
2023-05-19T15:14:31.450Z,33.64
2023-05-19T15:16:58.550Z,33.88
2023-05-19T15:19:27.942Z,34.08
2023-05-19T15:21:55.069Z,34.26
2023-05-19T15:24:24.340Z,34.40
2023-05-19T15:26:52.077Z,34.30
2023-05-19T15:29:18.743Z,34.74
2023-05-19T15:31:45.797Z,34.57
2023-05-19T15:34:12.765Z,34.32
2023-05-19T15:36:39.491Z,35.03
2023-05-19T15:39:06.584Z,35.08
2023-05-19T15:41:33.275Z,35.11
2023-05-19T15:44:00.644Z,34.56
2023-05-19T15:46:27.602Z,34.36
2023-05-19T15:48:54.610Z,34.74
2023-05-19T15:51:21.494Z,34.96
2023-05-19T15:53:48.546Z,34.80
2023-05-19T15:56:15.462Z,34.72
2023-05-19T15:58:42.474Z,34.31
2023-05-19T16:01:14.074Z,34.34
2023-05-19T16:03:40.923Z,34.33
2023-05-19T16:06:07.760Z,34.65
2023-05-19T16:08:34.490Z,33.94
2023-05-19T16:11:01.917Z,34.17
2023-05-19T16:13:30.439Z,34.60
2023-05-19T16:15:57.164Z,34.85
2023-05-19T16:18:23.859Z,34.93
2023-05-19T16:20:53.531Z,33.96
2023-05-19T16:23:20.235Z,34.35
2023-05-19T16:25:49.216Z,34.34
2023-05-19T16:28:15.885Z,34.88
2023-05-19T16:30:43.371Z,35.01
2023-05-19T16:33:12.767Z,34.65
2023-05-19T16:35:39.587Z,35.18
2023-05-19T16:38:10.968Z,35.17
2023-05-19T16:40:38.211Z,34.86
2023-05-19T16:43:04.983Z,35.18
2023-05-19T16:45:31.605Z,35.09
2023-05-19T16:47:58.257Z,34.42
2023-05-19T16:50:25.058Z,34.27
2023-05-19T16:52:51.677Z,34.41
2023-05-19T16:55:20.349Z,34.58
2023-05-19T16:58:15.262Z,34.13
2023-05-19T17:01:05.850Z,34.10
2023-05-19T17:03:43.781Z,34.63
2023-05-19T17:06:10.849Z,34.67
2023-05-19T17:08:37.833Z,34.59
2023-05-19T17:11:06.537Z,33.88
2023-05-19T17:13:36.661Z,33.84
2023-05-19T17:16:03.432Z,33.73
2023-05-19T17:18:31.461Z,33.58
2023-05-19T17:21:03.375Z,34.17
2023-05-19T17:23:30.222Z,34.52
2023-05-19T17:25:56.947Z,34.97
2023-05-19T17:28:23.730Z,35.10
2023-05-19T17:30:50.631Z,35.55
2023-05-19T17:33:17.576Z,35.89
2023-05-19T17:35:44.244Z,35.84
2023-05-19T17:38:13.650Z,35.73
2023-05-19T17:40:41.923Z,35.48
2023-05-19T17:43:09.004Z,35.81
2023-05-19T17:45:35.665Z,35.91
2023-05-19T17:48:05.502Z,35.95
2023-05-19T17:50:34.646Z,35.54
2023-05-19T17:53:01.990Z,35.82
2023-05-19T17:55:30.987Z,35.82
2023-05-19T17:57:57.906Z,35.44
2023-05-19T18:00:30.490Z,36.00
2023-05-19T18:02:57.669Z,36.00
2023-05-19T18:05:25.121Z,35.89
2023-05-19T18:07:55.809Z,36.19
2023-05-19T18:10:24.888Z,36.43
2023-05-19T18:12:51.555Z,36.49
2023-05-19T18:15:20.456Z,36.46
2023-05-19T18:17:50.208Z,36.73
2023-05-19T18:20:16.861Z,36.87
2023-05-19T18:22:47.019Z,37.09
2023-05-19T18:25:13.890Z,37.24
2023-05-19T18:27:42.645Z,37.54
2023-05-19T18:30:09.508Z,37.47
2023-05-19T18:32:37.294Z,37.64
2023-05-19T18:35:08.020Z,37.64
2023-05-19T18:37:34.893Z,38.03
2023-05-19T18:40:01.764Z,38.05
2023-05-19T18:42:28.533Z,38.07
2023-05-19T18:44:55.241Z,38.19
2023-05-19T18:47:24.332Z,38.53
2023-05-19T18:49:50.970Z,38.60
2023-05-19T18:52:19.043Z,38.98
2023-05-19T18:54:47.151Z,39.18
2023-05-19T18:57:16.689Z,39.50
2023-05-19T18:59:46.709Z,39.79
2023-05-19T19:02:13.321Z,39.74
2023-05-19T19:04:40.095Z,39.98
2023-05-19T19:07:06.720Z,40.10
2023-05-19T19:09:33.389Z,40.38
2023-05-19T19:12:00.215Z,40.46
2023-05-19T19:14:26.780Z,40.77
2023-05-19T19:16:53.482Z,41.14
2023-05-19T19:19:20.527Z,41.30
2023-05-19T19:21:47.326Z,41.59
2023-05-19T19:24:15.126Z,41.80
2023-05-19T19:26:44.844Z,41.99
2023-05-19T19:29:25.614Z,42.10
2023-05-19T19:31:52.943Z,42.64
2023-05-19T19:34:20.558Z,42.66
2023-05-19T19:36:50.257Z,43.29
2023-05-19T19:39:17.499Z,43.34
2023-05-19T19:41:45.115Z,43.71
2023-05-19T19:44:14.289Z,43.68
2023-05-19T19:46:41.280Z,43.99
2023-05-19T19:49:09.211Z,44.45
2023-05-19T19:51:36.554Z,44.46
2023-05-19T19:54:03.147Z,44.47
2023-05-19T19:56:29.798Z,44.49
2023-05-19T19:58:59.146Z,45.01
2023-05-19T20:01:28.479Z,44.89
2023-05-19T20:03:56.792Z,45.05
2023-05-19T20:06:23.614Z,45.08
2023-05-19T20:08:52.548Z,45.69
2023-05-19T20:11:19.899Z,45.58
2023-05-19T20:13:47.166Z,45.46
2023-05-19T20:16:18.572Z,45.58
2023-05-19T20:18:48.508Z,45.64
2023-05-19T20:21:15.300Z,45.61
2023-05-19T20:23:42.063Z,45.53
2023-05-19T20:26:12.571Z,45.57
2023-05-19T20:28:40.358Z,45.73
2023-05-19T20:31:07.425Z,46.00
2023-05-19T20:33:34.277Z,46.21
2023-05-19T20:36:01.129Z,46.31
2023-05-19T20:38:27.747Z,46.48
2023-05-19T20:40:54.942Z,46.78
2023-05-19T20:43:21.623Z,46.89
2023-05-19T20:45:48.391Z,47.01
2023-05-19T20:48:16.018Z,47.27
2023-05-19T20:50:45.826Z,47.42
2023-05-19T20:53:12.437Z,47.67
2023-05-19T20:55:39.147Z,47.63
2023-05-19T20:58:08.476Z,47.91
2023-05-19T21:00:35.378Z,48.16
2023-05-19T21:03:02.212Z,48.43
2023-05-19T21:05:49.227Z,48.46
2023-05-19T21:08:16.102Z,48.27
2023-05-19T21:10:45.192Z,48.69
2023-05-19T21:13:12.272Z,48.70
2023-05-19T21:15:38.984Z,49.03
2023-05-19T21:18:06.751Z,48.97
2023-05-19T21:20:33.610Z,49.25
2023-05-19T21:23:00.579Z,49.14
2023-05-19T21:25:27.896Z,49.48
2023-05-19T21:27:56.065Z,49.46
2023-05-19T21:30:23.658Z,49.64
2023-05-19T21:32:50.638Z,50.10
2023-05-19T21:35:17.360Z,50.29
2023-05-19T21:37:46.324Z,50.33
2023-05-19T21:40:13.010Z,50.35
2023-05-19T21:42:39.688Z,50.37
2023-05-19T21:45:06.957Z,50.43
2023-05-19T21:47:33.785Z,50.64
2023-05-19T21:50:00.637Z,50.73
2023-05-19T21:52:27.820Z,50.95
2023-05-19T21:54:56.869Z,50.96
2023-05-19T21:57:23.471Z,50.79
2023-05-19T21:59:52.579Z,51.17
2023-05-19T22:02:19.200Z,51.08
2023-05-19T22:04:46.043Z,51.14
2023-05-19T22:07:15.108Z,51.24
2023-05-19T22:09:41.674Z,51.15
2023-05-19T22:12:08.335Z,51.13
2023-05-19T22:14:35.879Z,51.54
2023-05-19T22:17:02.529Z,51.51
2023-05-19T22:19:29.294Z,51.35
2023-05-19T22:22:09.863Z,51.54
2023-05-19T22:24:39.810Z,51.75
2023-05-19T22:27:08.094Z,51.97
2023-05-19T22:29:34.671Z,51.83
2023-05-19T22:32:01.530Z,52.24
2023-05-19T22:34:28.249Z,52.06
2023-05-19T22:36:54.835Z,52.30
2023-05-19T22:39:23.653Z,52.78
2023-05-19T22:41:52.513Z,52.88
2023-05-19T22:44:19.681Z,53.18
2023-05-19T22:46:46.435Z,53.74
2023-05-19T22:49:15.564Z,53.88
2023-05-19T22:51:44.444Z,54.03
2023-05-19T22:54:11.436Z,54.15
2023-05-19T22:56:40.298Z,54.42
2023-05-19T22:59:09.452Z,54.58
2023-05-19T23:01:36.385Z,54.79
2023-05-19T23:04:03.505Z,54.95
2023-05-19T23:06:31.390Z,55.18
2023-05-19T23:09:02.678Z,55.72
2023-05-19T23:11:29.581Z,55.54
2023-05-19T23:13:56.442Z,55.88
2023-05-19T23:16:23.071Z,55.84
2023-05-19T23:18:49.783Z,55.82
2023-05-19T23:21:16.576Z,56.05
2023-05-19T23:23:43.240Z,56.01
2023-05-19T23:26:10.061Z,55.96
2023-05-19T23:28:36.713Z,56.59
2023-05-19T23:31:05.731Z,56.50
2023-05-19T23:33:32.363Z,57.00
2023-05-19T23:35:59.522Z,56.83
2023-05-19T23:38:27.050Z,57.11
2023-05-19T23:40:53.653Z,57.30
2023-05-19T23:43:20.244Z,57.64
2023-05-19T23:45:49.094Z,57.86
2023-05-19T23:48:15.752Z,58.19
2023-05-19T23:50:45.348Z,58.38
2023-05-19T23:53:11.988Z,58.48
2023-05-19T23:55:38.677Z,58.67
2023-05-19T23:58:05.612Z,58.90
